Time;durP1;ratioP1;P1;durP2;ratioP2;P2;SDS_P1;SDS_P2;PMS_P1;PMS_P2;Temp;Humidity;BMP_temperature;BMP_pressure;BME280_temperature;BME280_humidity;BME280_pressure;Samples;Min_cycle;Max_cycle;Signal;HPM_P1;HPM_P2
2021/01/28 00:00:29;;;;;;;3.90;3.60;;;5.40;1.00;;;;;;5120711;27;20225;-52
2021/01/28 00:02:56;;;;;;;5.30;4.80;;;5.40;1.00;;;;;;5120490;27;20511;-52
2021/01/28 00:05:23;;;;;;;4.87;4.47;;;5.50;1.00;;;;;;5123381;27;20546;-52
2021/01/28 00:07:49;;;;;;;4.83;4.43;;;5.40;1.00;;;;;;5112753;27;20789;-54
2021/01/28 00:10:16;;;;;;;4.80;4.40;;;5.40;1.00;;;;;;5128159;27;20424;-53
2021/01/28 00:12:41;;;;;;;5.57;4.57;;;6.00;1.00;;;;;;5120251;27;20472;-53
2021/01/28 00:15:09;;;;;;;5.20;4.70;;;5.50;1.00;;;;;;5127669;27;20436;-53
2021/01/28 00:17:34;;;;;;;5.60;5.00;;;5.40;1.00;;;;;;5118485;27;20279;-54
2021/01/28 00:20:00;;;;;;;5.13;4.63;;;5.30;1.00;;;;;;5121454;27;20456;-52
2021/01/28 00:22:26;;;;;;;5.30;4.80;;;5.50;1.00;;;;;;5122255;27;20189;-53
2021/01/28 00:24:51;;;;;;;5.60;4.97;;;5.30;1.00;;;;;;5116936;27;20193;-56
2021/01/28 00:27:17;;;;;;;4.90;4.50;;;5.40;1.00;;;;;;5132196;27;20181;-53
2021/01/28 00:29:43;;;;;;;4.77;4.37;;;5.40;1.00;;;;;;5125239;27;20272;-55
2021/01/28 00:32:09;;;;;;;5.33;4.80;;;5.30;1.00;;;;;;5117940;27;20546;-53
2021/01/28 00:34:34;;;;;;;5.70;5.07;;;5.40;1.00;;;;;;5113028;27;20188;-53
2021/01/28 00:37:00;;;;;;;5.40;4.90;;;5.40;1.00;;;;;;5122275;27;20272;-53
2021/01/28 00:39:26;;;;;;;5.40;4.90;;;5.40;1.00;;;;;;5118502;27;20289;-53
2021/01/28 00:41:51;;;;;;;5.30;4.80;;;5.40;1.00;;;;;;5124306;27;20521;-54
2021/01/28 00:44:17;;;;;;;7.20;5.20;;;5.30;1.00;;;;;;5121442;27;20730;-52
2021/01/28 00:46:43;;;;;;;6.10;5.27;;;5.20;1.00;;;;;;5117856;27;20201;-52
2021/01/28 00:49:08;;;;;;;5.50;5.00;;;5.20;1.00;;;;;;5121789;27;20263;-52
2021/01/28 00:51:34;;;;;;;5.37;4.87;;;5.30;1.00;;;;;;5120267;27;20200;-53
2021/01/28 00:53:59;;;;;;;5.20;4.70;;;5.40;1.00;;;;;;5124057;27;20227;-53
2021/01/28 00:56:25;;;;;;;4.43;4.10;;;5.40;1.00;;;;;;5123130;27;20170;-52
2021/01/28 00:58:51;;;;;;;5.07;4.60;;;5.70;1.00;;;;;;5127784;27;20253;-51
2021/01/28 01:01:17;;;;;;;6.93;5.40;;;5.60;1.00;;;;;;5122776;27;20197;-55
2021/01/28 01:03:42;;;;;;;5.37;4.87;;;5.50;1.00;;;;;;5125723;27;20181;-52
2021/01/28 01:06:08;;;;;;;5.73;4.60;;;5.60;1.00;;;;;;5122970;27;20189;-53
2021/01/28 01:08:34;;;;;;;5.63;5.13;;;5.70;1.00;;;;;;5113682;27;20631;-54
2021/01/28 01:11:03;;;;;;;5.70;5.20;;;5.50;1.00;;;;;;5119385;27;20201;-55
2021/01/28 01:13:31;;;;;;;5.60;5.07;;;5.50;1.00;;;;;;5116643;27;20261;-54
2021/01/28 01:15:58;;;;;;;6.23;5.63;;;5.50;1.00;;;;;;5127291;27;20430;-53
2021/01/28 01:18:28;;;;;;;5.23;4.73;;;5.60;1.00;;;;;;5112359;27;20446;-54
2021/01/28 01:20:55;;;;;;;4.87;4.47;;;5.60;1.00;;;;;;5116675;27;20462;-52
2021/01/28 01:23:21;;;;;;;5.50;5.00;;;5.70;1.00;;;;;;5119543;27;20439;-53
2021/01/28 01:25:46;;;;;;;5.10;4.60;;;5.60;1.00;;;;;;5116936;27;20443;-53
2021/01/28 01:28:12;;;;;;;5.23;4.73;;;5.80;1.00;;;;;;5117669;27;20188;-54
2021/01/28 01:30:38;;;;;;;5.20;4.50;;;5.90;1.00;;;;;;5119240;27;20522;-54
2021/01/28 01:33:04;;;;;;;5.43;4.93;;;5.90;1.00;;;;;;5119458;27;20552;-54
2021/01/28 01:35:30;;;;;;;5.77;4.73;;;5.70;1.00;;;;;;5127417;27;20237;-52
2021/01/28 01:37:57;;;;;;;5.27;4.80;;;5.70;1.00;;;;;;5123519;27;20956;-52
2021/01/28 01:40:33;;;;;;;5.23;4.73;;;5.80;1.00;;;;;;5122879;27;20676;-52
2021/01/28 01:42:59;;;;;;;5.33;4.80;;;5.70;1.00;;;;;;5120264;27;20417;-51
2021/01/28 01:45:50;;;;;;;5.63;5.03;;;5.60;1.00;;;;;;5117692;27;20638;-52
2021/01/28 01:48:23;;;;;;;3.93;3.53;;;5.60;1.00;;;;;;5119074;27;20435;-53
2021/01/28 01:50:58;;;;;;;5.10;4.60;;;5.80;1.00;;;;;;5125236;27;20438;-54
2021/01/28 01:53:28;;;;;;;4.73;4.33;;;5.70;1.00;;;;;;5117257;27;20453;-53
2021/01/28 01:56:16;;;;;;;4.90;4.50;;;5.70;1.00;;;;;;5122372;27;20524;-54
2021/01/28 01:58:50;;;;;;;4.23;3.83;;;5.80;1.00;;;;;;5118898;27;20824;-53
2021/01/28 02:01:19;;;;;;;5.37;4.87;;;5.70;1.00;;;;;;5125252;27;21002;-52
2021/01/28 02:03:45;;;;;;;5.97;5.37;;;5.70;1.00;;;;;;5120863;27;20496;-53
2021/01/28 02:06:19;;;;;;;5.67;5.10;;;5.80;1.00;;;;;;5125281;27;20945;-52
2021/01/28 02:08:51;;;;;;;5.37;4.70;;;5.70;1.00;;;;;;5112753;28;20229;-53
2021/01/28 02:11:16;;;;;;;5.00;4.57;;;5.50;1.00;;;;;;5121943;28;20446;-54
2021/01/28 02:13:44;;;;;;;5.33;4.83;;;5.30;1.00;;;;;;5115525;28;20440;-55
2021/01/28 02:16:13;;;;;;;4.20;3.77;;;5.30;1.00;;;;;;5114449;28;20670;-52
2021/01/28 02:18:39;;;;;;;5.00;4.53;;;5.30;1.00;;;;;;5121953;27;20497;-54
2021/01/28 02:21:26;;;;;;;6.37;5.77;;;5.20;1.00;;;;;;5122613;28;20467;-53
2021/01/28 02:24:14;;;;;;;5.90;5.30;;;5.20;1.00;;;;;;5121606;28;20438;-53
2021/01/28 02:26:45;;;;;;;6.33;5.73;;;5.30;1.00;;;;;;5127508;27;20432;-52
2021/01/28 02:29:11;;;;;;;7.07;5.97;;;5.30;1.00;;;;;;5113475;28;20428;-53
2021/01/28 02:31:40;;;;;;;6.33;5.73;;;5.40;1.00;;;;;;5121283;28;20519;-54
2021/01/28 02:34:07;;;;;;;5.80;5.30;;;5.20;1.00;;;;;;5127331;28;20532;-54
2021/01/28 02:36:38;;;;;;;6.80;6.20;;;5.40;1.00;;;;;;5122475;27;20516;-53
2021/01/28 02:39:08;;;;;;;5.80;5.20;;;5.40;1.00;;;;;;5124052;27;20436;-53
2021/01/28 02:41:34;;;;;;;6.83;6.10;;;5.60;1.00;;;;;;5125890;28;20549;-54
2021/01/28 02:44:00;;;;;;;8.30;6.70;;;5.50;1.00;;;;;;5115940;28;20936;-53
2021/01/28 02:46:26;;;;;;;7.27;6.17;;;5.50;1.00;;;;;;5119045;28;20270;-55
2021/01/28 02:48:52;;;;;;;6.67;5.97;;;5.60;1.00;;;;;;5112332;27;20445;-52
2021/01/28 02:51:19;;;;;;;6.73;6.03;;;5.70;1.00;;;;;;5120259;27;21010;-53
2021/01/28 02:53:48;;;;;;;8.40;6.43;;;5.80;1.00;;;;;;5114645;28;20432;-54
2021/01/28 02:56:14;;;;;;;6.93;6.20;;;5.80;1.00;;;;;;5124926;27;20438;-53
2021/01/28 02:58:40;;;;;;;5.57;5.07;;;5.70;1.00;;;;;;5123747;27;20447;-54
2021/01/28 03:01:08;;;;;;;5.40;4.90;;;5.70;1.00;;;;;;5121453;27;20941;-54
2021/01/28 03:03:34;;;;;;;5.70;4.97;;;5.80;1.00;;;;;;5127024;27;20179;-51
2021/01/28 03:06:00;;;;;;;4.83;4.33;;;5.90;1.00;;;;;;5118464;27;20534;-53
2021/01/28 03:08:26;;;;;;;7.10;4.90;;;6.10;1.00;;;;;;5128861;27;20230;-53
2021/01/28 03:10:53;;;;;;;5.93;4.87;;;5.90;1.00;;;;;;5131860;27;20446;-52
2021/01/28 03:13:19;;;;;;;4.97;4.50;;;5.90;1.00;;;;;;5126114;27;20443;-53
2021/01/28 03:15:45;;;;;;;5.00;4.50;;;5.80;1.00;;;;;;5127078;27;20448;-54
2021/01/28 03:18:12;;;;;;;5.80;5.20;;;5.80;1.00;;;;;;5126248;27;20438;-53
2021/01/28 03:20:38;;;;;;;5.37;4.60;;;5.90;1.00;;;;;;5131142;27;20613;-52
2021/01/28 03:23:04;;;;;;;7.50;5.17;;;6.00;1.00;;;;;;5129766;27;20437;-52
2021/01/28 03:25:30;;;;;;;7.07;5.53;;;5.90;1.00;;;;;;5118392;27;20447;-54
2021/01/28 03:27:56;;;;;;;5.80;5.30;;;5.80;1.00;;;;;;5124293;27;20435;-52
2021/01/28 03:30:35;;;;;;;6.00;5.30;;;6.10;1.00;;;;;;5123572;27;20216;-52
2021/01/28 03:33:03;;;;;;;5.97;5.23;;;6.10;1.00;;;;;;5127517;27;20466;-53
2021/01/28 03:35:29;;;;;;;5.57;4.60;;;6.10;1.00;;;;;;5129192;27;20452;-52
2021/01/28 03:37:55;;;;;;;5.20;4.67;;;6.30;1.00;;;;;;5120990;27;20502;-53
2021/01/28 03:40:26;;;;;;;6.43;5.00;;;6.40;1.00;;;;;;5128208;27;20571;-52
2021/01/28 03:42:52;;;;;;;6.67;5.30;;;6.10;1.00;;;;;;5127393;27;20201;-53
2021/01/28 03:45:18;;;;;;;5.33;4.80;;;6.10;1.00;;;;;;5126966;27;20426;-55
2021/01/28 03:47:44;;;;;;;5.30;4.43;;;6.10;1.00;;;;;;5125476;27;20435;-53
2021/01/28 03:50:12;;;;;;;5.70;5.10;;;6.00;1.00;;;;;;5130668;27;20272;-51
2021/01/28 03:52:37;;;;;;;5.27;4.63;;;6.10;1.00;;;;;;5120135;27;20177;-52
2021/01/28 03:55:04;;;;;;;5.43;4.37;;;6.10;1.00;;;;;;5120972;27;20439;-51
2021/01/28 03:57:30;;;;;;;4.70;4.13;;;6.20;1.00;;;;;;5127917;27;20209;-56
2021/01/28 03:59:55;;;;;;;4.53;4.10;;;6.10;1.00;;;;;;5117142;27;20509;-54
2021/01/28 04:02:21;;;;;;;5.70;4.90;;;6.10;1.00;;;;;;5119602;27;20178;-54
2021/01/28 04:04:46;;;;;;;4.50;4.00;;;6.10;1.00;;;;;;5122689;27;20185;-55
2021/01/28 04:07:12;;;;;;;5.80;4.40;;;6.00;1.00;;;;;;5124241;27;20261;-53
2021/01/28 04:09:38;;;;;;;5.23;4.73;;;6.10;1.00;;;;;;5126697;27;20238;-54
2021/01/28 04:12:04;;;;;;;5.27;4.33;;;6.10;1.00;;;;;;5121357;27;20182;-54
2021/01/28 04:14:29;;;;;;;5.27;4.00;;;6.30;1.00;;;;;;5116646;27;20178;-53
2021/01/28 04:16:55;;;;;;;4.60;4.13;;;6.30;1.00;;;;;;5127779;27;20954;-52
2021/01/28 04:19:21;;;;;;;4.40;3.80;;;6.30;1.00;;;;;;5121481;27;20600;-55
2021/01/28 04:21:46;;;;;;;4.27;3.90;;;6.20;1.00;;;;;;5123056;27;20229;-53
2021/01/28 04:24:12;;;;;;;4.20;3.90;;;6.20;1.00;;;;;;5119795;27;20277;-54
2021/01/28 04:26:38;;;;;;;3.77;3.47;;;6.30;1.00;;;;;;5121738;27;20192;-52
2021/01/28 04:29:05;;;;;;;5.07;4.10;;;6.20;1.00;;;;;;5129063;27;20181;-56
2021/01/28 04:31:31;;;;;;;4.17;3.87;;;6.20;1.00;;;;;;5122795;27;20205;-55
2021/01/28 04:33:57;;;;;;;4.53;4.13;;;6.00;1.00;;;;;;5122624;27;20436;-53
2021/01/28 04:36:25;;;;;;;4.47;4.07;;;5.90;1.00;;;;;;5122323;27;20788;-53
2021/01/28 04:38:51;;;;;;;4.67;4.20;;;5.90;1.00;;;;;;5121750;27;20523;-54
2021/01/28 04:41:24;;;;;;;6.20;4.73;;;5.90;1.00;;;;;;5121103;27;20846;-52
2021/01/28 04:43:52;;;;;;;4.50;4.10;;;6.00;1.00;;;;;;5119186;27;20436;-52
2021/01/28 04:46:40;;;;;;;4.40;4.07;;;6.00;1.00;;;;;;5121285;27;20439;-53
2021/01/28 04:49:11;;;;;;;4.67;4.20;;;6.20;1.00;;;;;;5122682;27;20435;-54
2021/01/28 04:51:39;;;;;;;5.60;4.53;;;6.30;1.00;;;;;;5118313;27;20426;-51
2021/01/28 04:54:22;;;;;;;7.93;4.47;;;6.20;1.00;;;;;;5120800;27;20489;-54
2021/01/28 04:56:51;;;;;;;4.07;3.70;;;6.20;1.00;;;;;;5119270;27;20466;-55
2021/01/28 04:59:25;;;;;;;4.97;4.47;;;6.30;1.00;;;;;;5115545;27;20439;-53
2021/01/28 05:01:51;;;;;;;4.97;4.47;;;6.30;1.00;;;;;;5122270;27;20480;-55
2021/01/28 05:04:19;;;;;;;4.10;3.70;;;6.20;1.00;;;;;;5122263;27;20466;-53
2021/01/28 05:06:48;;;;;;;4.20;3.80;;;6.00;1.00;;;;;;5120174;27;20481;-53
2021/01/28 05:09:15;;;;;;;5.23;4.73;;;6.10;1.00;;;;;;5122719;27;20447;-53
2021/01/28 05:11:51;;;;;;;5.03;3.90;;;6.10;1.00;;;;;;5122525;27;20439;-53
2021/01/28 05:14:24;;;;;;;5.30;4.30;;;6.10;1.00;;;;;;5116242;27;20782;-53
2021/01/28 05:16:56;;;;;;;4.63;4.13;;;6.10;1.00;;;;;;5119292;27;20914;-53
2021/01/28 05:19:33;;;;;;;5.37;4.80;;;6.10;1.00;;;;;;5120619;27;20974;-53
2021/01/28 05:22:16;;;;;;;6.30;4.77;;;6.20;1.00;;;;;;5124347;27;20423;-55
2021/01/28 05:24:45;;;;;;;5.70;4.27;;;6.20;1.00;;;;;;5123279;27;20436;-53
2021/01/28 05:27:16;;;;;;;6.93;5.17;;;6.20;1.00;;;;;;5115736;27;20455;-52
2021/01/28 05:29:43;;;;;;;5.00;4.50;;;6.30;1.00;;;;;;5127873;27;20567;-53
2021/01/28 05:32:33;;;;;;;6.27;4.70;;;6.50;1.00;;;;;;5117532;27;20506;-54
2021/01/28 05:35:18;;;;;;;7.00;5.00;;;6.30;1.00;;;;;;5115939;27;20446;-53
2021/01/28 05:37:44;;;;;;;5.87;4.60;;;6.20;1.00;;;;;;5126688;27;20522;-53
2021/01/28 05:40:23;;;;;;;5.87;5.27;;;6.40;1.00;;;;;;5115784;27;20552;-55
2021/01/28 05:42:51;;;;;;;7.73;5.00;;;6.20;1.00;;;;;;5122040;27;20973;-55
2021/01/28 05:45:23;;;;;;;6.60;4.60;;;6.20;1.00;;;;;;5123665;27;20784;-53
2021/01/28 05:47:50;;;;;;;5.23;4.70;;;6.20;1.00;;;;;;5121108;27;20514;-54
2021/01/28 05:50:31;;;;;;;4.80;4.30;;;6.20;1.00;;;;;;5124758;27;20452;-54
2021/01/28 05:53:12;;;;;;;4.43;4.03;;;6.20;1.00;;;;;;5121998;27;20507;-54
2021/01/28 05:55:37;;;;;;;5.40;4.80;;;6.20;1.00;;;;;;5121725;27;20430;-53
2021/01/28 05:58:11;;;;;;;6.23;4.73;;;6.20;1.00;;;;;;5115725;27;20430;-53
2021/01/28 06:00:56;;;;;;;5.43;4.47;;;6.10;1.00;;;;;;5122838;27;20280;-54
2021/01/28 06:03:40;;;;;;;5.80;4.57;;;6.10;1.00;;;;;;5120442;27;20426;-52
2021/01/28 06:06:32;;;;;;;6.73;4.47;;;6.30;1.00;;;;;;5115834;27;20450;-53
2021/01/28 06:09:19;;;;;;;6.07;4.70;;;6.10;1.00;;;;;;5118737;28;20925;-54
2021/01/28 06:12:02;;;;;;;5.33;4.80;;;6.10;1.00;;;;;;5117767;28;20455;-52
2021/01/28 06:14:43;;;;;;;5.03;4.57;;;6.10;1.00;;;;;;5123121;28;20442;-52
2021/01/28 06:17:47;;;;;;;5.67;5.10;;;6.20;1.00;;;;;;5126609;28;20461;-55
2021/01/28 06:20:23;;;;;;;5.73;4.60;;;6.20;1.00;;;;;;5124147;28;20465;-54
2021/01/28 06:23:15;;;;;;;6.03;4.90;;;6.20;1.00;;;;;;5125454;27;20779;-54
2021/01/28 06:25:59;;;;;;;6.50;5.30;;;6.20;1.00;;;;;;5124252;28;20572;-53
2021/01/28 06:29:09;;;;;;;5.90;4.90;;;6.20;1.00;;;;;;5122013;28;20463;-55
2021/01/28 06:32:16;;;;;;;4.93;4.43;;;6.10;1.00;;;;;;5129275;27;20435;-52
2021/01/28 06:34:54;;;;;;;7.00;5.63;;;6.20;1.00;;;;;;5126654;27;21027;-54
2021/01/28 06:37:28;;;;;;;8.90;5.63;;;6.30;1.00;;;;;;5126817;27;20455;-53
2021/01/28 06:39:56;;;;;;;6.30;5.60;;;6.30;1.00;;;;;;5123198;27;20481;-54
2021/01/28 06:42:41;;;;;;;8.17;5.80;;;6.20;1.00;;;;;;5131144;27;20903;-53
2021/01/28 06:45:16;;;;;;;6.00;5.23;;;6.20;1.00;;;;;;5122894;27;20437;-55
2021/01/28 06:47:51;;;;;;;6.97;5.30;;;6.30;1.00;;;;;;5129091;27;20930;-53
2021/01/28 06:50:20;;;;;;;6.93;5.80;;;6.20;1.00;;;;;;5125475;27;20915;-53
2021/01/28 06:53:01;;;;;;;7.53;5.53;;;6.20;1.00;;;;;;5121677;27;20444;-55
2021/01/28 06:55:56;;;;;;;7.67;5.70;;;6.40;1.00;;;;;;5124327;27;20432;-55
2021/01/28 06:58:25;;;;;;;7.90;6.00;;;6.50;1.00;;;;;;5127426;27;20427;-52
2021/01/28 07:01:14;;;;;;;7.80;7.00;;;6.50;1.00;;;;;;5121481;27;20455;-55
2021/01/28 07:03:58;;;;;;;5.30;4.43;;;6.50;1.00;;;;;;5124899;27;20431;-52
2021/01/28 07:06:32;;;;;;;6.23;5.27;;;6.60;1.00;;;;;;5125746;27;20427;-52
2021/01/28 07:09:21;;;;;;;5.37;4.87;;;6.60;1.00;;;;;;5128698;27;20437;-53
2021/01/28 07:11:53;;;;;;;7.33;5.40;;;6.60;1.00;;;;;;5119271;27;20420;-52
2021/01/28 07:14:19;;;;;;;9.87;5.77;;;6.60;1.00;;;;;;5121080;27;20522;-57
2021/01/28 07:16:47;;;;;;;7.23;5.10;;;6.60;1.00;;;;;;5125705;27;20517;-54
2021/01/28 07:19:29;;;;;;;11.00;5.67;;;6.60;1.00;;;;;;5128452;27;20426;-55
2021/01/28 07:21:55;;;;;;;7.93;5.07;;;6.60;1.00;;;;;;5124056;27;20434;-53
2021/01/28 07:24:36;;;;;;;8.00;5.20;;;6.60;1.00;;;;;;5122449;27;20838;-53
2021/01/28 07:27:10;;;;;;;6.77;5.40;;;6.50;1.00;;;;;;5123651;27;20437;-54
2021/01/28 07:29:44;;;;;;;6.60;5.07;;;6.50;1.00;;;;;;5130335;27;20423;-53
2021/01/28 07:32:12;;;;;;;5.43;4.93;;;6.50;1.00;;;;;;5123730;27;20827;-53
2021/01/28 07:34:38;;;;;;;5.40;4.90;;;6.60;1.00;;;;;;5123590;27;20438;-54
2021/01/28 07:37:21;;;;;;;5.80;5.30;;;6.70;1.00;;;;;;5122993;27;20535;-53
2021/01/28 07:39:47;;;;;;;7.80;4.90;;;6.70;1.00;;;;;;5116957;27;20457;-52
2021/01/28 07:42:21;;;;;;;8.40;4.87;;;7.80;1.00;;;;;;5121103;27;20880;-54
2021/01/28 07:44:53;;;;;;;8.03;5.43;;;6.70;1.00;;;;;;5132735;27;20434;-52
2021/01/28 07:47:31;;;;;;;6.00;5.17;;;6.70;1.00;;;;;;5117981;27;20838;-53
2021/01/28 07:50:32;;;;;;;6.40;5.30;;;6.60;1.00;;;;;;5119668;27;20531;-54
2021/01/28 07:53:18;;;;;;;6.00;4.57;;;6.70;1.00;;;;;;5117472;27;20932;-53
2021/01/28 07:55:45;;;;;;;6.33;5.57;;;6.80;1.00;;;;;;5123930;27;20765;-56
2021/01/28 07:58:21;;;;;;;6.07;5.47;;;6.70;1.00;;;;;;5117675;27;20440;-53
2021/01/28 08:00:48;;;;;;;5.77;5.10;;;6.60;1.00;;;;;;5119499;27;20475;-53
2021/01/28 08:03:24;;;;;;;7.53;6.07;;;6.70;1.00;;;;;;5125088;27;20435;-54
2021/01/28 08:05:53;;;;;;;7.67;5.60;;;6.60;1.00;;;;;;5116831;27;20511;-54
2021/01/28 08:08:20;;;;;;;6.70;5.30;;;6.80;1.00;;;;;;5125432;27;20435;-54
2021/01/28 08:10:46;;;;;;;6.97;4.80;;;6.90;1.00;;;;;;5123532;27;20792;-53
2021/01/28 08:13:25;;;;;;;7.37;5.00;;;6.90;1.00;;;;;;5124668;27;20537;-52
2021/01/28 08:16:06;;;;;;;7.03;4.73;;;7.00;1.00;;;;;;5121125;27;20952;-53
2021/01/28 08:18:40;;;;;;;8.83;7.00;;;6.90;1.00;;;;;;5116317;27;20777;-53
2021/01/28 08:21:22;;;;;;;5.57;4.60;;;6.80;1.00;;;;;;5118136;27;20558;-56
2021/01/28 08:23:48;;;;;;;8.70;4.83;;;6.60;1.00;;;;;;5122271;27;20432;-53
2021/01/28 08:26:29;;;;;;;5.70;4.30;;;6.70;1.00;;;;;;5121901;27;20436;-54
2021/01/28 08:29:11;;;;;;;5.90;5.27;;;6.70;1.00;;;;;;5118312;27;20526;-53
2021/01/28 08:31:43;;;;;;;6.80;4.97;;;6.70;1.00;;;;;;5125348;27;20499;-54
2021/01/28 08:34:16;;;;;;;7.93;5.50;;;6.80;1.00;;;;;;5126577;27;20888;-55
2021/01/28 08:36:47;;;;;;;7.73;4.70;;;6.90;1.00;;;;;;5121793;27;20440;-52
2021/01/28 08:39:14;;;;;;;7.03;4.70;;;6.80;1.00;;;;;;5113308;27;20436;-53
2021/01/28 08:41:42;;;;;;;8.20;4.87;;;6.70;1.00;;;;;;5129922;27;20465;-54
2021/01/28 08:44:12;;;;;;;6.10;4.77;;;6.80;1.00;;;;;;5125201;27;20435;-53
2021/01/28 08:46:39;;;;;;;5.77;5.13;;;6.80;1.00;;;;;;5118554;27;20432;-54
2021/01/28 08:49:09;;;;;;;7.83;5.00;;;6.70;1.00;;;;;;5116525;27;20543;-56
2021/01/28 08:51:39;;;;;;;7.40;4.80;;;6.90;1.00;;;;;;5117016;27;20435;-54
2021/01/28 08:54:20;;;;;;;5.37;4.47;;;6.80;1.00;;;;;;5122324;27;20928;-52
2021/01/28 08:56:48;;;;;;;8.53;5.90;;;6.90;1.00;;;;;;5125155;27;20458;-53
2021/01/28 08:59:18;;;;;;;9.63;5.20;;;7.00;1.00;;;;;;5116102;27;20869;-55
2021/01/28 09:01:47;;;;;;;7.10;5.33;;;6.70;1.00;;;;;;5123669;27;20466;-53
2021/01/28 09:04:30;;;;;;;9.33;5.60;;;6.60;1.00;;;;;;5120340;27;20435;-53
2021/01/28 09:06:56;;;;;;;5.70;4.83;;;6.60;1.00;;;;;;5111728;27;20492;-54
2021/01/28 09:09:25;;;;;;;6.03;4.67;;;6.60;1.00;;;;;;5123269;27;20838;-54
2021/01/28 09:11:52;;;;;;;6.43;5.30;;;6.80;1.00;;;;;;5128136;27;20186;-54
2021/01/28 09:14:33;;;;;;;9.40;5.03;;;6.90;1.00;;;;;;5125390;27;20435;-55
2021/01/28 09:17:25;;;;;;;8.77;5.57;;;6.90;1.00;;;;;;5127393;27;20439;-54
2021/01/28 09:19:55;;;;;;;6.23;5.03;;;6.80;1.00;;;;;;5116730;27;20970;-53
2021/01/28 09:22:35;;;;;;;8.33;6.50;;;6.80;1.00;;;;;;5116753;27;20435;-53
2021/01/28 09:25:14;;;;;;;9.20;5.33;;;6.90;1.00;;;;;;5125474;27;20517;-53
2021/01/28 09:27:40;;;;;;;5.93;4.80;;;6.90;1.00;;;;;;5125611;27;20481;-51
2021/01/28 09:30:22;;;;;;;9.50;6.70;;;7.10;1.00;;;;;;5121805;27;20463;-55
2021/01/28 09:32:48;;;;;;;8.20;5.80;;;6.80;1.00;;;;;;5121460;27;20459;-53
2021/01/28 09:35:24;;;;;;;11.83;8.37;;;6.80;1.00;;;;;;5120771;27;20435;-55
2021/01/28 09:38:06;;;;;;;9.63;6.27;;;6.90;1.00;;;;;;5123948;27;20423;-53
2021/01/28 09:40:36;;;;;;;10.60;6.70;;;7.00;1.00;;;;;;5122485;27;20493;-53
2021/01/28 09:43:32;;;;;;;9.23;7.00;;;6.90;1.00;;;;;;5129369;27;20442;-55
2021/01/28 09:46:24;;;;;;;9.77;6.70;;;6.90;1.00;;;;;;5130387;27;20439;-53
2021/01/28 09:48:52;;;;;;;8.70;6.57;;;6.80;1.00;;;;;;5120174;27;20439;-54
2021/01/28 09:51:34;;;;;;;10.63;6.97;;;6.80;1.00;;;;;;5114723;27;20495;-54
2021/01/28 09:54:10;;;;;;;11.13;7.30;;;6.80;1.00;;;;;;5119742;27;20428;-54
2021/01/28 09:56:36;;;;;;;8.60;6.83;;;6.90;1.00;;;;;;5121300;27;20841;-53
2021/01/28 09:59:02;;;;;;;10.40;5.43;;;7.00;1.00;;;;;;5126379;27;20435;-52
2021/01/28 10:01:27;;;;;;;7.40;5.60;;;7.00;1.00;;;;;;5119029;27;20198;-53
2021/01/28 10:03:53;;;;;;;7.30;5.83;;;7.00;1.00;;;;;;5122458;27;20182;-52
2021/01/28 10:06:18;;;;;;;8.67;6.10;;;7.00;1.00;;;;;;5124087;27;20177;-54
2021/01/28 10:08:44;;;;;;;8.07;5.60;;;7.10;1.00;;;;;;5118978;28;20181;-55
2021/01/28 10:11:09;;;;;;;7.90;5.40;;;7.20;1.00;;;;;;5118257;28;20173;-53
2021/01/28 10:13:35;;;;;;;8.70;5.53;;;7.20;1.00;;;;;;5115448;28;20314;-53
2021/01/28 10:16:01;;;;;;;8.67;6.37;;;7.10;1.00;;;;;;5123983;28;20632;-53
2021/01/28 10:18:26;;;;;;;8.60;6.70;;;7.20;1.00;;;;;;5122015;28;20186;-53
2021/01/28 10:20:52;;;;;;;14.70;9.80;;;7.20;1.00;;;;;;5121136;28;20216;-53
2021/01/28 10:23:18;;;;;;;10.70;7.03;;;7.20;1.00;;;;;;5121887;28;20188;-53
2021/01/28 10:25:44;;;;;;;9.90;6.23;;;7.30;1.00;;;;;;5116215;28;20518;-53
2021/01/28 10:28:10;;;;;;;7.90;6.60;;;7.30;1.00;;;;;;5118912;28;20478;-54
2021/01/28 10:30:36;;;;;;;7.97;6.37;;;7.40;1.00;;;;;;5126000;28;20218;-54
2021/01/28 10:33:03;;;;;;;9.43;5.80;;;7.50;1.00;;;;;;5112650;28;20969;-54
2021/01/28 10:35:30;;;;;;;7.10;5.67;;;7.60;1.00;;;;;;5115076;27;20189;-54
2021/01/28 10:37:57;;;;;;;8.30;6.20;;;7.60;1.00;;;;;;5121844;28;20579;-54
2021/01/28 10:40:24;;;;;;;9.67;5.77;;;7.60;1.00;;;;;;5120152;27;21027;-54
2021/01/28 10:42:54;;;;;;;7.60;5.73;;;7.60;1.00;;;;;;5115037;28;20450;-53
2021/01/28 10:45:23;;;;;;;8.53;6.00;;;7.60;1.00;;;;;;5117439;27;20535;-56
2021/01/28 10:47:49;;;;;;;9.83;6.30;;;7.50;1.00;;;;;;5122608;27;20459;-54
2021/01/28 10:50:15;;;;;;;9.73;5.90;;;7.60;1.00;;;;;;5116889;28;20805;-54
2021/01/28 10:52:40;;;;;;;15.33;6.90;;;7.50;1.00;;;;;;5122000;27;20675;-51
2021/01/28 10:55:08;;;;;;;14.63;8.60;;;7.50;1.00;;;;;;5126335;28;20423;-56
2021/01/28 10:57:34;;;;;;;7.83;6.17;;;7.50;1.00;;;;;;5119441;27;20183;-53
2021/01/28 10:59:59;;;;;;;8.57;6.23;;;7.50;1.00;;;;;;5120183;28;20928;-54
2021/01/28 11:02:25;;;;;;;8.27;5.63;;;7.50;1.00;;;;;;5122917;28;20964;-54
2021/01/28 11:04:50;;;;;;;6.27;5.60;;;7.50;1.00;;;;;;5120058;28;20723;-54
2021/01/28 11:07:16;;;;;;;9.50;6.43;;;7.60;1.00;;;;;;5111453;28;20174;-56
2021/01/28 11:09:42;;;;;;;8.37;5.90;;;7.70;1.00;;;;;;5119073;28;20209;-54
2021/01/28 11:12:09;;;;;;;10.40;5.70;;;7.80;1.00;;;;;;5128474;27;20586;-54
2021/01/28 11:14:34;;;;;;;10.83;4.80;;;7.90;1.00;;;;;;5118162;28;20439;-53
2021/01/28 11:17:00;;;;;;;7.60;5.10;;;8.00;1.00;;;;;;5116109;27;20794;-52
2021/01/28 11:19:26;;;;;;;8.13;6.37;;;8.00;1.00;;;;;;5114877;28;20178;-53
2021/01/28 11:21:51;;;;;;;5.77;4.73;;;8.10;1.00;;;;;;5115157;28;20185;-53
2021/01/28 11:24:17;;;;;;;6.53;4.97;;;8.10;1.00;;;;;;5127475;27;20170;-53
2021/01/28 11:26:42;;;;;;;7.50;5.60;;;8.10;1.00;;;;;;5114527;28;20178;-53
2021/01/28 11:29:08;;;;;;;6.07;4.90;;;8.10;1.00;;;;;;5123387;27;20189;-54
2021/01/28 11:31:36;;;;;;;8.10;5.60;;;8.20;1.00;;;;;;5127338;27;20215;-55
2021/01/28 11:34:02;;;;;;;8.27;4.43;;;8.30;1.00;;;;;;5116510;27;20204;-53
2021/01/28 11:36:28;;;;;;;6.33;4.67;;;8.10;1.00;;;;;;5119740;27;20432;-55
2021/01/28 11:38:54;;;;;;;7.70;5.17;;;8.00;1.00;;;;;;5124988;27;20500;-53
2021/01/28 11:41:19;;;;;;;10.07;5.43;;;8.00;1.00;;;;;;5124544;27;20459;-54
2021/01/28 11:43:45;;;;;;;7.17;4.40;;;8.10;1.00;;;;;;5118831;27;20178;-53
2021/01/28 11:46:10;;;;;;;7.77;4.90;;;8.10;1.00;;;;;;5120648;27;20182;-54
2021/01/28 11:48:36;;;;;;;8.63;5.47;;;8.10;1.00;;;;;;5124015;27;20182;-55
2021/01/28 11:51:01;;;;;;;6.33;4.80;;;8.20;1.00;;;;;;5114718;27;20586;-53
2021/01/28 11:53:27;;;;;;;7.47;5.40;;;8.20;1.00;;;;;;5129734;27;20657;-53
2021/01/28 11:55:53;;;;;;;8.40;5.50;;;8.10;1.00;;;;;;5128840;27;20177;-56
2021/01/28 11:58:19;;;;;;;6.23;5.30;;;8.10;1.00;;;;;;5124969;27;20652;-55
2021/01/28 12:00:45;;;;;;;6.80;4.80;;;8.10;1.00;;;;;;5120481;27;20321;-53
2021/01/28 12:03:11;;;;;;;10.63;5.47;;;8.20;1.00;;;;;;5120024;27;20440;-53
2021/01/28 12:05:36;;;;;;;7.30;5.30;;;8.00;1.00;;;;;;5118219;27;20833;-54
2021/01/28 12:08:02;;;;;;;9.17;5.47;;;8.10;1.00;;;;;;5125757;27;20217;-55
2021/01/28 12:10:30;;;;;;;8.57;5.90;;;8.10;1.00;;;;;;5114502;27;20633;-53
2021/01/28 12:12:56;;;;;;;13.40;6.77;;;8.00;1.00;;;;;;5131460;27;20519;-53
2021/01/28 12:15:23;;;;;;;8.40;6.10;;;8.10;1.00;;;;;;5115919;27;20870;-56
2021/01/28 12:17:49;;;;;;;10.90;7.07;;;8.30;1.00;;;;;;5127914;27;20192;-53
2021/01/28 12:20:18;;;;;;;9.13;6.00;;;8.30;1.00;;;;;;5120663;27;20574;-53
2021/01/28 12:22:44;;;;;;;5.70;4.00;;;8.30;1.00;;;;;;5121034;27;20428;-54
2021/01/28 12:25:10;;;;;;;9.00;4.87;;;8.30;1.00;;;;;;5132698;27;20439;-54
2021/01/28 12:27:35;;;;;;;7.90;5.30;;;8.30;1.00;;;;;;5125924;27;20542;-53
2021/01/28 12:30:04;;;;;;;6.90;4.30;;;8.20;1.00;;;;;;5127978;27;20431;-54
2021/01/28 12:32:29;;;;;;;5.13;3.20;;;8.20;1.00;;;;;;5120232;27;20217;-53
2021/01/28 12:34:55;;;;;;;6.03;3.70;;;8.20;1.00;;;;;;5122413;27;20797;-54
2021/01/28 12:37:21;;;;;;;6.73;5.30;;;8.10;1.00;;;;;;5124562;27;20190;-54
2021/01/28 12:39:47;;;;;;;10.97;7.37;;;8.10;1.00;;;;;;5127702;27;20177;-54
2021/01/28 12:42:12;;;;;;;12.00;7.80;;;8.00;1.00;;;;;;5116746;27;20473;-55
2021/01/28 12:44:38;;;;;;;10.23;7.60;;;7.90;1.00;;;;;;5121964;27;20182;-53
2021/01/28 12:47:03;;;;;;;11.03;8.23;;;7.80;1.00;;;;;;5125223;27;20178;-53
2021/01/28 12:49:31;;;;;;;10.90;8.70;;;7.80;1.00;;;;;;5126166;27;20178;-53
2021/01/28 12:51:57;;;;;;;10.73;9.60;;;7.70;1.00;;;;;;5125823;27;20196;-53
2021/01/28 12:54:23;;;;;;;14.27;10.13;;;7.70;1.00;;;;;;5119871;27;20440;-55
2021/01/28 12:56:49;;;;;;;15.03;10.43;;;7.60;1.00;;;;;;5115380;27;20428;-55
2021/01/28 12:59:14;;;;;;;12.73;9.20;;;7.50;1.00;;;;;;5127196;27;20683;-53
2021/01/28 13:01:40;;;;;;;10.67;8.97;;;7.50;1.00;;;;;;5125587;27;20549;-53
2021/01/28 13:04:05;;;;;;;13.70;9.90;;;7.40;1.00;;;;;;5125900;27;20177;-54
2021/01/28 13:06:32;;;;;;;15.07;9.53;;;7.50;1.00;;;;;;5121862;27;20197;-53
2021/01/28 13:08:58;;;;;;;16.27;9.97;;;7.50;1.00;;;;;;5115316;27;20181;-53
2021/01/28 13:11:24;;;;;;;14.33;11.40;;;7.40;1.00;;;;;;5118582;27;20431;-54
2021/01/28 13:13:50;;;;;;;14.33;11.33;;;7.30;1.00;;;;;;5129430;27;20429;-53
2021/01/28 13:16:17;;;;;;;15.97;11.57;;;7.40;1.00;;;;;;5124570;27;20648;-57
2021/01/28 13:18:43;;;;;;;15.07;11.57;;;7.40;1.00;;;;;;5126192;27;20477;-54
2021/01/28 13:21:08;;;;;;;14.53;11.53;;;7.40;1.00;;;;;;5126573;27;20506;-55